Etusivu
METAR-TAF:

METAR-TAF

Lentoasemat :

Cuneo, Italia

Leveyspiiri: 44-32-47N, Pituuspiiri: 007-37-20E, korkeus merenpinnasta: 386 m

Tämänhetkinen sää

Tämä raportti tehtiin 36 minuuttia sitten, kello 15.50 UTC
Tuuli 4 kn pohjoisesta
Lämpötila 13°C
Kosteus 30%
Ilmanpaine 1030 hPa
Näkyvyys 10 km tai enemmän
ei pilviä alle 1500 m:ssä eikä cumulonimbus-pilviä

METAR: LIMZ 211550Z 35004KT CAVOK 13/M04 Q1030

Aika: 17:26 (16:26 UTC)

Sääennuste

Tämä raportti tehtiin 5 tuntia ja 26 minuuttia sitten, kello 11.00 UTC
Ennuste voimassa 21. päivästä klo 12 UTC - 22. päivään klo 12 UTC
Tuuli 5 kn eri suunnista
Näkyvyys 10 km tai enemmän
ei pilviä alle 1500 m:ssä eikä cumulonimbus-pilviä

TAF: LIMZ 211100Z 2112/2212 VRB05KT CAVOK

Säähavainnot ja -ennusteet yli 4000 lentoasemalta (METAR- ja TAF-raportit).

Käytössä olevat sääasemat on merkitty karttaan keltaisilla ja punaisilla pisteillä.

Aseta hiiri pisteen päälle nähdäksesi sääaseman nimen.

Klikkaa sitten nähdäksesi säähavainnot ja -ennusteet.

Kartan vaihtaminen: klikkaa mustalla rastilla varustettuja vihreitä pisteitä, niin voit zoomata sisään; viivalla varustettua vihreää pistettä, niin voit zoomata ulos tai vihreitä nuolia, niin pääset viereisille kartoille.


METAR-TAF: